createdAt,value
2023-01-26T05:46:01.227Z,24.15
2023-01-26T05:48:33.580Z,24.27
2023-01-26T05:51:06.590Z,25.95
2023-01-26T05:53:40.985Z,21.38
2023-01-26T05:56:14.057Z,23.27
2023-01-26T05:58:50.894Z,17.35
2023-01-26T06:01:23.611Z,17.57
2023-01-26T06:04:03.004Z,19.08
2023-01-26T06:06:42.347Z,26.55
2023-01-26T06:09:27.904Z,25.95
2023-01-26T06:12:40.075Z,26.02
2023-01-26T06:15:37.979Z,23.98
2023-01-26T06:18:10.423Z,20.30
2023-01-26T06:20:44.387Z,22.80
2023-01-26T06:23:16.865Z,23.67
2023-01-26T06:25:52.237Z,22.73
2023-01-26T06:28:24.504Z,22.58
2023-01-26T06:31:01.819Z,20.92
2023-01-26T06:33:36.862Z,16.65
2023-01-26T06:36:12.045Z,20.73
2023-01-26T06:38:49.451Z,16.83
2023-01-26T06:41:22.038Z,21.05
2023-01-26T06:43:55.053Z,19.35
2023-01-26T06:46:27.276Z,24.27
2023-01-26T06:49:02.741Z,33.55
2023-01-26T06:51:46.546Z,18.80
2023-01-26T06:54:18.883Z,20.80
2023-01-26T06:57:26.925Z,21.35
2023-01-26T07:00:13.209Z,21.90
2023-01-26T07:03:03.791Z,24.10
2023-01-26T07:05:35.945Z,25.33
2023-01-26T07:08:08.806Z,32.75
2023-01-26T07:10:41.119Z,28.63
2023-01-26T07:13:13.487Z,31.48
2023-01-26T07:15:45.461Z,24.30
2023-01-26T07:18:17.712Z,22.65
2023-01-26T07:20:49.715Z,23.17
2023-01-26T07:23:21.883Z,46.00
2023-01-26T07:25:53.892Z,17.10
2023-01-26T07:28:26.819Z,15.73
2023-01-26T07:30:58.964Z,17.88
2023-01-26T07:33:32.838Z,14.10
2023-01-26T07:36:05.272Z,14.27
2023-01-26T07:38:37.334Z,16.80
2023-01-26T07:41:12.239Z,14.90
2023-01-26T15:46:33.369Z,48.47
2023-01-26T15:49:05.304Z,50.63
2023-01-26T15:51:37.999Z,52.55
2023-01-26T15:54:11.389Z,56.72
2023-01-26T15:56:43.443Z,79.88
2023-01-26T15:59:15.381Z,57.33
2023-01-26T16:01:47.477Z,52.72
2023-01-26T16:04:19.797Z,49.38
2023-01-26T16:06:51.818Z,49.00
2023-01-26T16:09:23.936Z,40.97
2023-01-26T16:11:55.963Z,50.47
2023-01-26T16:14:28.016Z,49.25
2023-01-26T16:17:00.046Z,49.10
2023-01-26T16:19:35.630Z,46.95
2023-01-26T16:22:10.977Z,44.08
2023-01-26T16:24:42.891Z,51.45
2023-01-26T16:27:15.494Z,42.93
2023-01-26T16:29:47.428Z,44.03
2023-01-26T16:32:29.206Z,44.42
2023-01-26T16:35:01.811Z,44.70
2023-01-26T16:37:33.766Z,46.40
2023-01-26T16:40:06.825Z,47.00
2023-01-26T16:42:44.981Z,50.92
2023-01-26T16:45:19.588Z,51.22
2023-01-26T16:47:56.860Z,48.28
2023-01-26T16:50:30.719Z,47.70
2023-01-26T16:53:16.887Z,45.25
2023-01-26T16:55:48.999Z,44.22
2023-01-26T16:58:22.091Z,48.67
2023-01-26T17:00:55.640Z,49.28
2023-01-26T17:03:27.700Z,51.88
2023-01-26T17:06:00.002Z,43.88
2023-01-26T17:08:32.029Z,49.15
2023-01-26T17:11:05.069Z,43.90
2023-01-26T17:13:37.094Z,43.22
2023-01-26T17:16:14.853Z,48.15
2023-01-26T17:18:48.689Z,53.58
2023-01-26T17:21:21.214Z,47.08
2023-01-26T17:23:55.852Z,52.20
2023-01-26T17:26:27.998Z,47.97
2023-01-26T17:29:00.093Z,48.90
2023-01-26T17:31:32.101Z,43.00
2023-01-26T17:34:04.754Z,53.10
2023-01-26T17:36:36.805Z,47.40
2023-01-26T17:39:10.218Z,48.85
2023-01-26T17:44:15.355Z,53.13
2023-01-26T17:46:48.276Z,49.40
2023-01-26T17:49:21.761Z,56.28
2023-01-26T17:54:25.749Z,52.13
2023-01-26T17:56:58.383Z,57.13
2023-01-26T17:59:30.418Z,44.65
2023-01-26T18:02:02.953Z,49.70
2023-01-26T18:04:35.220Z,48.70
2023-01-26T18:07:07.557Z,44.33
2023-01-26T18:09:39.552Z,46.75
2023-01-26T18:12:11.622Z,51.15
2023-01-26T18:14:43.644Z,62.63
2023-01-26T18:17:15.869Z,50.53
2023-01-26T18:19:47.850Z,53.13
2023-01-26T18:22:19.821Z,53.53
2023-01-26T18:24:53.082Z,54.88
2023-01-26T18:27:25.534Z,55.63
2023-01-26T18:29:57.830Z,47.72
2023-01-26T18:32:30.214Z,55.28
2023-01-26T18:35:02.365Z,49.17
2023-01-26T18:37:34.516Z,52.63
2023-01-26T18:40:08.416Z,51.55
2023-01-26T18:42:41.107Z,48.92
2023-01-26T18:45:13.565Z,54.92
2023-01-26T18:47:45.697Z,46.33
2023-01-26T18:50:18.060Z,48.88
2023-01-26T18:52:51.159Z,57.72
2023-01-26T18:55:23.626Z,54.53
2023-01-26T18:57:55.838Z,48.53
2023-01-26T19:00:27.810Z,48.70
2023-01-26T19:03:00.334Z,51.20
2023-01-26T19:05:32.319Z,48.10
2023-01-26T19:08:10.393Z,52.38
2023-01-26T19:10:42.375Z,47.22
2023-01-26T19:13:14.450Z,51.92
2023-01-26T19:15:48.116Z,42.63
2023-01-26T19:18:20.667Z,49.10
2023-01-26T19:21:00.484Z,50.25
2023-01-26T19:23:33.189Z,53.63
2023-01-26T19:26:17.556Z,42.83
2023-01-26T19:28:51.113Z,46.45
2023-01-26T19:33:59.025Z,54.30
2023-01-26T19:36:33.746Z,51.53
2023-01-26T19:39:11.585Z,52.36
2023-01-26T19:41:46.106Z,53.10
2023-01-26T19:44:18.187Z,49.70
2023-01-26T19:46:53.854Z,58.03
2023-01-26T19:49:26.214Z,47.03
2023-01-26T19:51:58.574Z,48.93
2023-01-26T19:54:30.798Z,54.80
2023-01-26T19:57:02.835Z,49.92
2023-01-26T19:59:35.407Z,45.92
2023-01-26T20:02:10.230Z,51.70
2023-01-26T20:04:42.289Z,45.58
2023-01-26T20:07:14.238Z,46.30
2023-01-26T20:09:46.641Z,46.88
2023-01-26T20:12:20.537Z,48.25
2023-01-26T20:14:53.617Z,45.83
2023-01-26T20:17:25.571Z,50.53
2023-01-26T20:19:57.579Z,47.50
2023-01-26T20:22:33.639Z,47.78
2023-01-26T20:25:06.665Z,47.13
2023-01-26T20:27:39.111Z,49.15
2023-01-26T20:30:12.089Z,47.38
2023-01-26T20:32:44.436Z,50.03
2023-01-26T20:35:16.373Z,39.17
2023-01-26T20:37:48.484Z,45.80
2023-01-26T20:40:20.458Z,49.13
2023-01-26T20:42:53.115Z,49.60
2023-01-26T20:45:25.244Z,49.65
2023-01-26T20:47:58.239Z,45.65
